createdAt,value
2023-05-24T00:01:45.326Z,3.53
2023-05-24T00:03:51.169Z,3.42
2023-05-24T00:05:57.240Z,3.40
2023-05-24T00:08:05.109Z,3.70
2023-05-24T00:10:11.901Z,3.58
2023-05-24T00:12:17.019Z,3.78
2023-05-24T00:14:22.398Z,3.55
2023-05-24T00:16:27.577Z,4.38
2023-05-24T00:18:33.989Z,4.60
2023-05-24T00:20:39.352Z,3.83
2023-05-24T00:22:45.071Z,3.88
2023-05-24T00:24:57.989Z,3.70
2023-05-24T00:27:03.988Z,3.88
2023-05-24T00:29:09.320Z,3.90
2023-05-24T00:31:14.321Z,3.35
2023-05-24T00:33:19.324Z,3.47
2023-05-24T00:35:24.487Z,3.97
2023-05-24T00:37:33.520Z,3.47
2023-05-24T00:39:38.722Z,3.55
2023-05-24T00:41:46.630Z,4.00
2023-05-24T00:43:51.871Z,4.90
2023-05-24T00:46:19.661Z,4.15
2023-05-24T00:48:28.995Z,5.78
2023-05-24T00:50:35.002Z,4.90
2023-05-24T00:52:40.798Z,4.22
2023-05-24T00:54:46.419Z,3.75
2023-05-24T00:56:58.345Z,3.47
2023-05-24T00:59:04.183Z,3.28
2023-05-24T01:01:09.783Z,3.75
2023-05-24T01:03:15.638Z,3.90
2023-05-24T01:05:20.806Z,4.15
2023-05-24T01:07:31.790Z,3.75
2023-05-24T01:09:44.830Z,3.15
2023-05-24T01:12:06.997Z,3.28
2023-05-24T01:14:24.297Z,3.20
2023-05-24T01:16:39.806Z,3.63
2023-05-24T01:18:51.872Z,3.63
2023-05-24T01:21:09.714Z,3.25
2023-05-24T01:23:25.875Z,3.70
2023-05-24T01:25:50.684Z,3.75
2023-05-24T01:27:58.972Z,3.35
2023-05-24T01:30:05.438Z,4.28
2023-05-24T01:32:11.386Z,3.40
2023-05-24T01:34:16.914Z,3.58
2023-05-24T01:36:24.636Z,3.65
2023-05-24T01:38:30.349Z,3.20
2023-05-24T01:40:36.590Z,2.88
2023-05-24T01:42:48.771Z,3.58
2023-05-24T01:45:06.504Z,2.90
2023-05-24T01:47:28.034Z,3.22
2023-05-24T01:49:41.493Z,3.45
2023-05-24T01:51:52.912Z,2.85
2023-05-24T01:54:01.659Z,3.50
2023-05-24T01:56:09.889Z,3.10
2023-05-24T01:58:19.424Z,3.92
2023-05-24T02:00:27.985Z,3.30
2023-05-24T02:02:36.900Z,4.13
2023-05-24T02:04:42.018Z,3.63
2023-05-24T02:06:47.275Z,3.13
2023-05-24T02:08:55.089Z,3.40
2023-05-24T02:11:03.060Z,3.55
2023-05-24T02:13:09.234Z,3.83
2023-05-24T02:15:15.031Z,3.45
2023-05-24T02:17:28.668Z,2.88
2023-05-24T02:19:35.486Z,3.13
2023-05-24T02:21:41.458Z,3.50
2023-05-24T02:23:46.935Z,4.05
2023-05-24T02:25:52.014Z,3.20
2023-05-24T02:27:57.532Z,3.13
2023-05-24T02:30:02.518Z,5.40
2023-05-24T02:32:09.105Z,4.40
2023-05-24T02:34:16.689Z,5.30
2023-05-24T02:36:24.090Z,4.20
2023-05-24T02:38:29.898Z,4.38
2023-05-24T02:40:35.550Z,4.63
2023-05-24T02:42:43.866Z,4.32
2023-05-24T02:44:53.112Z,3.63
2023-05-24T02:46:58.219Z,4.05
2023-05-24T02:49:03.190Z,3.97
2023-05-24T02:51:10.957Z,3.65
2023-05-24T02:53:16.206Z,3.58
2023-05-24T02:55:21.350Z,3.60
2023-05-24T02:57:26.277Z,4.15
2023-05-24T02:59:31.604Z,3.58
2023-05-24T03:01:37.250Z,3.70
2023-05-24T03:03:42.757Z,4.10
2023-05-24T03:05:47.931Z,4.22
2023-05-24T03:07:57.958Z,4.10
2023-05-24T03:10:03.215Z,3.72
2023-05-24T03:12:10.379Z,4.43
2023-05-24T03:14:17.684Z,3.70
2023-05-24T03:16:26.019Z,3.42
2023-05-24T03:18:31.217Z,3.58
2023-05-24T03:20:36.788Z,3.35
2023-05-24T03:22:42.032Z,3.17
2023-05-24T03:24:51.108Z,3.90
2023-05-24T03:26:56.458Z,3.97
2023-05-24T03:29:01.604Z,4.75
2023-05-24T03:31:07.145Z,4.43
2023-05-24T03:33:12.475Z,3.40
2023-05-24T03:35:17.800Z,4.03
2023-05-24T03:37:24.996Z,4.30
2023-05-24T03:39:33.087Z,5.28
2023-05-24T03:41:42.368Z,4.55
2023-05-24T03:43:47.519Z,4.30
2023-05-24T03:45:55.316Z,3.90
2023-05-24T03:48:01.134Z,3.40
2023-05-24T03:50:06.570Z,3.58
2023-05-24T03:52:12.130Z,4.28
2023-05-24T03:54:18.213Z,4.20
2023-05-24T03:56:29.930Z,3.50
2023-05-24T03:58:40.295Z,4.20
2023-05-24T04:00:45.452Z,3.85
2023-05-24T04:02:51.156Z,3.55
2023-05-24T04:04:57.268Z,4.15
2023-05-24T04:07:02.488Z,3.63
2023-05-24T04:09:08.267Z,4.13
2023-05-24T04:11:13.405Z,4.68
2023-05-24T04:13:24.440Z,3.88
2023-05-24T04:15:33.470Z,4.15
2023-05-24T04:17:41.106Z,4.30
2023-05-24T04:19:47.094Z,3.53
2023-05-24T04:21:53.153Z,3.65
2023-05-24T04:24:00.443Z,4.68
2023-05-24T04:26:07.100Z,4.40
2023-05-24T04:28:12.268Z,5.30
2023-05-24T04:30:18.091Z,5.05
2023-05-24T04:32:27.137Z,4.80
2023-05-24T04:34:35.963Z,5.00
2023-05-24T04:36:44.754Z,3.90
2023-05-24T04:38:50.949Z,4.38
2023-05-24T04:40:59.752Z,5.15
2023-05-24T04:43:04.933Z,4.97
2023-05-24T04:45:12.581Z,5.60
2023-05-24T04:47:18.020Z,4.57
2023-05-24T04:49:29.040Z,4.32
2023-05-24T04:51:34.368Z,6.43
2023-05-24T04:53:40.197Z,4.50
2023-05-24T04:55:45.821Z,4.88
2023-05-24T04:57:51.120Z,4.45
2023-05-24T04:59:56.508Z,6.13
2023-05-24T05:02:01.707Z,5.00
2023-05-24T05:04:09.018Z,5.68
2023-05-24T05:06:17.499Z,4.75
2023-05-24T05:08:23.224Z,4.85
2023-05-24T05:10:29.240Z,5.00
2023-05-24T05:12:34.414Z,5.50
2023-05-24T05:14:39.874Z,5.30
2023-05-24T05:16:46.864Z,5.13
2023-05-24T05:18:52.273Z,5.55
2023-05-24T05:20:57.543Z,5.20
2023-05-24T05:23:05.152Z,5.22
2023-05-24T05:25:11.232Z,6.00
2023-05-24T05:27:16.156Z,5.90
2023-05-24T05:29:22.894Z,5.75
2023-05-24T05:31:32.519Z,5.40
2023-05-24T05:33:38.902Z,5.90
2023-05-24T05:35:43.964Z,5.80
2023-05-24T05:37:49.352Z,5.75
2023-05-24T05:39:59.596Z,6.50
2023-05-24T05:42:04.582Z,5.88
2023-05-24T05:44:10.483Z,5.55
2023-05-24T05:46:16.651Z,4.80
2023-05-24T05:48:23.619Z,5.95
2023-05-24T05:50:28.851Z,5.05
2023-05-24T05:52:33.989Z,5.15
2023-05-24T05:54:39.305Z,7.75
2023-05-24T05:56:52.012Z,5.93
2023-05-24T05:58:59.534Z,6.30
2023-05-24T06:01:05.077Z,5.45
2023-05-24T06:03:10.479Z,5.82
2023-05-24T06:05:19.504Z,6.07
2023-05-24T06:07:24.874Z,5.60
2023-05-24T06:09:32.146Z,5.68
2023-05-24T06:11:37.775Z,5.22
2023-05-24T06:13:45.613Z,5.10
2023-05-24T06:15:53.549Z,5.32
2023-05-24T06:17:58.807Z,5.68
2023-05-24T06:20:10.285Z,5.30
2023-05-24T06:22:15.551Z,5.70
2023-05-24T06:24:25.074Z,4.32
2023-05-24T06:26:33.734Z,6.03
2023-05-24T06:28:39.951Z,4.47
2023-05-24T06:30:48.004Z,5.25
2023-05-24T06:32:57.216Z,6.47
2023-05-24T06:35:02.772Z,5.57
2023-05-24T06:37:10.943Z,4.80
2023-05-24T06:39:16.860Z,6.28
2023-05-24T06:41:23.072Z,4.97
2023-05-24T06:43:28.533Z,4.63
2023-05-24T06:45:33.742Z,5.18
2023-05-24T06:47:41.958Z,5.53
2023-05-24T06:49:48.349Z,5.63
2023-05-24T06:51:56.439Z,5.10
2023-05-24T06:54:01.453Z,5.95
2023-05-24T06:56:07.129Z,6.03
2023-05-24T06:58:14.613Z,4.85
2023-05-24T07:00:21.822Z,4.13
2023-05-24T07:02:31.040Z,5.20
2023-05-24T07:04:41.484Z,5.45
2023-05-24T07:06:47.887Z,4.72
2023-05-24T07:08:56.235Z,5.30
2023-05-24T07:11:01.193Z,6.22
2023-05-24T07:13:07.102Z,4.72
2023-05-24T07:15:13.467Z,4.25
2023-05-24T07:17:20.583Z,4.82
2023-05-24T07:24:51.344Z,5.30
2023-05-24T07:26:57.764Z,4.35
2023-05-24T07:29:02.943Z,4.38
2023-05-24T07:31:11.226Z,4.68
2023-05-24T07:33:17.010Z,4.85
2023-05-24T07:35:24.196Z,4.45
2023-05-24T07:37:30.033Z,4.43
2023-05-24T07:39:35.107Z,5.05
2023-05-24T07:41:42.696Z,4.40
2023-05-24T07:43:47.909Z,4.47
2023-05-24T07:45:54.373Z,4.50
2023-05-24T07:47:59.591Z,4.38
2023-05-24T07:50:04.524Z,3.40
2023-05-24T07:52:09.652Z,4.35
2023-05-24T07:54:14.821Z,4.20
2023-05-24T07:56:22.809Z,4.55
2023-05-24T07:58:30.669Z,4.40
2023-05-24T08:00:38.537Z,4.13
2023-05-24T08:02:44.406Z,5.45
2023-05-24T08:04:49.873Z,3.95
2023-05-24T08:06:54.825Z,4.40
2023-05-24T08:09:02.497Z,4.28
2023-05-24T08:11:08.292Z,3.83
2023-05-24T08:13:13.398Z,3.65
2023-05-24T08:15:24.142Z,3.35
2023-05-24T08:17:32.753Z,4.47
2023-05-24T08:19:38.129Z,3.72
2023-05-24T08:21:44.195Z,3.38
2023-05-24T08:23:52.204Z,3.78
2023-05-24T08:25:59.320Z,3.55
2023-05-24T08:28:04.516Z,3.60
2023-05-24T08:30:11.505Z,4.80
2023-05-24T08:32:19.409Z,4.32
2023-05-24T08:34:24.625Z,4.10
2023-05-24T08:36:33.158Z,4.10
2023-05-24T08:38:38.065Z,3.80
2023-05-24T08:40:43.995Z,4.30
2023-05-24T08:42:49.830Z,4.53
2023-05-24T08:45:02.183Z,4.78
2023-05-24T08:47:07.997Z,4.07
2023-05-24T08:49:16.004Z,4.72
2023-05-24T08:51:21.156Z,4.85
2023-05-24T08:53:28.505Z,3.90
2023-05-24T08:55:34.398Z,4.80
2023-05-24T08:57:41.873Z,3.78
2023-05-24T08:59:48.058Z,3.70
2023-05-24T09:01:58.121Z,3.70
2023-05-24T09:04:03.708Z,3.42
2023-05-24T09:06:12.972Z,4.75
2023-05-24T09:08:20.777Z,3.53
2023-05-24T09:10:26.175Z,3.95
2023-05-24T09:12:38.140Z,3.95
2023-05-24T09:14:48.374Z,4.38
2023-05-24T09:16:57.639Z,3.53
2023-05-24T09:19:03.761Z,3.75
2023-05-24T09:21:12.022Z,4.30
2023-05-24T09:23:17.902Z,4.43
2023-05-24T09:25:26.445Z,4.53
2023-05-24T09:27:32.214Z,4.30
2023-05-24T09:29:39.357Z,3.60
2023-05-24T09:31:46.303Z,4.57
2023-05-24T09:33:52.120Z,5.72
2023-05-24T09:36:01.278Z,3.88
2023-05-24T09:38:09.355Z,3.55
2023-05-24T09:40:24.562Z,3.92
2023-05-24T09:42:31.505Z,4.28
2023-05-24T09:44:38.298Z,4.72
2023-05-24T09:46:43.443Z,4.55
2023-05-24T09:48:59.812Z,3.97
2023-05-24T09:51:10.143Z,4.15
2023-05-24T09:53:25.310Z,3.53
2023-05-24T09:55:42.974Z,3.25
2023-05-24T09:57:51.284Z,3.65
2023-05-24T09:59:56.681Z,3.30
2023-05-24T10:02:12.055Z,3.10
2023-05-24T10:04:17.506Z,3.17
2023-05-24T10:06:27.733Z,3.10
2023-05-24T10:08:36.968Z,3.47
2023-05-24T10:10:42.623Z,4.20
2023-05-24T10:12:48.462Z,3.88
2023-05-24T10:14:58.756Z,4.53
2023-05-24T10:17:04.258Z,3.50
2023-05-24T10:19:10.205Z,3.45
2023-05-24T10:21:15.969Z,3.28
2023-05-24T10:23:25.012Z,3.75
2023-05-24T10:25:35.564Z,3.58
2023-05-24T10:27:41.946Z,3.17
2023-05-24T10:29:54.640Z,3.90
2023-05-24T10:32:00.898Z,3.28
2023-05-24T10:34:09.145Z,3.70
2023-05-24T10:36:16.905Z,2.95
2023-05-24T10:38:27.540Z,3.50
2023-05-24T10:40:35.556Z,2.95
2023-05-24T10:42:56.551Z,2.88
2023-05-24T10:45:49.368Z,3.33
2023-05-24T10:49:00.926Z,3.25
2023-05-24T11:01:35.870Z,3.55
2023-05-24T11:04:01.363Z,3.45
2023-05-24T11:10:12.590Z,3.40
2023-05-24T11:28:39.707Z,3.55
2023-05-24T11:31:40.471Z,3.50
2023-05-24T11:34:33.260Z,3.03
2023-05-24T11:36:54.588Z,2.97
2023-05-24T11:43:03.901Z,3.00
2023-05-24T11:48:22.776Z,3.30
2023-05-24T12:05:39.018Z,3.35
2023-05-24T12:18:11.578Z,3.42
2023-05-24T12:20:46.665Z,3.75
2023-05-24T12:27:54.201Z,3.03
2023-05-24T12:30:10.996Z,3.55
2023-05-24T12:32:30.656Z,3.55
2023-05-24T12:34:36.799Z,3.35
2023-05-24T12:36:53.142Z,3.50
2023-05-24T12:39:10.610Z,4.00
2023-05-24T12:41:27.502Z,3.30
2023-05-24T12:43:40.113Z,3.20
2023-05-24T12:46:05.667Z,3.22
2023-05-24T12:48:17.305Z,3.40
2023-05-24T12:50:30.280Z,3.60
2023-05-24T12:55:11.339Z,3.42
2023-05-24T12:57:16.830Z,3.65
2023-05-24T12:59:22.505Z,3.90
2023-05-24T13:01:33.018Z,3.70
2023-05-24T13:03:39.866Z,3.78
2023-05-24T13:05:47.037Z,3.58
2023-05-24T13:07:54.749Z,3.25
2023-05-24T13:10:00.625Z,3.35
2023-05-24T13:12:06.413Z,3.10
2023-05-24T13:14:11.746Z,3.90
2023-05-24T13:16:17.926Z,3.85
2023-05-24T13:25:51.113Z,3.72
2023-05-24T13:32:08.508Z,3.45
2023-05-24T13:37:24.091Z,3.60
2023-05-24T13:39:29.902Z,3.22
2023-05-24T13:41:35.805Z,3.40
2023-05-24T13:43:43.760Z,3.42
2023-05-24T13:45:49.101Z,3.28
2023-05-24T13:47:58.588Z,3.28
2023-05-24T13:50:03.855Z,3.65
2023-05-24T13:52:08.809Z,3.17
2023-05-24T13:54:17.659Z,3.58
2023-05-24T13:56:22.595Z,2.90
2023-05-24T13:58:27.809Z,5.35
2023-05-24T14:00:37.937Z,3.80
2023-05-24T14:02:43.464Z,3.60
2023-05-24T14:04:48.654Z,3.70
2023-05-24T14:06:56.645Z,4.25
2023-05-24T14:09:01.964Z,3.85
2023-05-24T14:11:09.885Z,3.70
2023-05-24T14:13:36.869Z,3.70
2023-05-24T14:15:40.364Z,3.97
2023-05-24T14:17:45.773Z,3.97
2023-05-24T14:19:51.948Z,3.33
2023-05-24T14:21:58.177Z,3.10
2023-05-24T14:24:03.234Z,3.22
2023-05-24T14:26:11.304Z,3.40
2023-05-24T14:28:16.788Z,3.70
2023-05-24T14:30:24.800Z,3.50
2023-05-24T14:32:32.802Z,3.60
2023-05-24T14:34:38.094Z,3.05
2023-05-24T14:36:43.551Z,4.00
2023-05-24T14:38:48.671Z,3.70
2023-05-24T14:40:57.600Z,3.88
2023-05-24T14:43:05.328Z,3.55
2023-05-24T14:45:12.398Z,4.10
2023-05-24T14:47:17.981Z,3.75
2023-05-24T14:49:23.460Z,2.90
2023-05-24T14:51:28.830Z,3.20
2023-05-24T14:53:34.065Z,3.45
2023-05-24T14:55:39.328Z,3.22
2023-05-24T14:57:44.919Z,3.40
2023-05-24T14:59:52.782Z,3.08
2023-05-24T15:01:58.096Z,3.38
2023-05-24T15:04:04.224Z,2.95
2023-05-24T15:06:09.780Z,3.63
2023-05-24T15:08:15.026Z,3.47
2023-05-24T15:10:20.236Z,3.03
2023-05-24T15:12:25.677Z,3.22
2023-05-24T15:14:31.167Z,3.08
2023-05-24T15:16:39.686Z,2.88
2023-05-24T15:18:45.073Z,3.42
2023-05-24T15:20:51.865Z,3.40
2023-05-24T15:22:57.780Z,3.17
2023-05-24T15:25:03.163Z,3.28
2023-05-24T15:27:09.552Z,3.63
2023-05-24T15:29:17.764Z,3.25
2023-05-24T15:31:23.712Z,3.20
2023-05-24T15:33:31.467Z,3.15
2023-05-24T15:35:36.711Z,3.25
2023-05-24T15:37:44.452Z,3.40
2023-05-24T15:39:50.653Z,3.45
2023-05-24T15:41:56.142Z,3.90
2023-05-24T15:44:08.025Z,2.90
2023-05-24T15:46:12.976Z,3.28
2023-05-24T15:48:18.033Z,3.83
2023-05-24T15:50:42.639Z,3.72
2023-05-24T15:52:53.405Z,3.08
2023-05-24T15:54:58.334Z,3.00
2023-05-24T15:57:03.963Z,3.60
2023-05-24T15:59:08.908Z,3.03
2023-05-24T16:01:14.111Z,3.40
2023-05-24T16:03:21.266Z,3.55
2023-05-24T16:05:32.509Z,3.58
2023-05-24T16:07:39.520Z,3.03
2023-05-24T16:09:46.558Z,3.50
2023-05-24T16:11:52.766Z,3.25
2023-05-24T16:14:02.517Z,3.22
2023-05-24T16:16:08.603Z,3.03
2023-05-24T16:18:18.313Z,3.42
2023-05-24T16:20:23.758Z,3.20
2023-05-24T16:22:31.366Z,3.28
2023-05-24T16:24:38.726Z,2.63
2023-05-24T16:26:43.727Z,3.67
2023-05-24T16:28:48.614Z,3.55
2023-05-24T16:30:56.572Z,3.20
2023-05-24T16:33:02.136Z,3.00
2023-05-24T16:35:08.830Z,3.58
2023-05-24T16:37:13.865Z,3.42
2023-05-24T16:39:22.461Z,4.55
2023-05-24T16:41:34.967Z,3.85
2023-05-24T16:43:39.967Z,4.25
2023-05-24T16:45:45.730Z,3.97
2023-05-24T16:47:52.320Z,3.22
2023-05-24T16:50:00.181Z,3.00
2023-05-24T16:52:06.351Z,3.80
2023-05-24T16:54:11.629Z,2.97
2023-05-24T16:56:19.603Z,3.92
2023-05-24T16:58:26.405Z,4.95
2023-05-24T17:00:31.530Z,3.60
2023-05-24T17:02:37.012Z,3.15
2023-05-24T17:04:42.094Z,3.72
2023-05-24T17:06:47.408Z,3.42
2023-05-24T17:08:52.559Z,3.17
2023-05-24T17:10:59.415Z,2.92
2023-05-24T17:13:07.348Z,3.22
2023-05-24T17:15:13.381Z,3.25
2023-05-24T17:17:19.602Z,3.20
2023-05-24T17:19:27.764Z,4.07
2023-05-24T17:21:35.285Z,3.40
2023-05-24T17:23:42.328Z,3.22
2023-05-24T17:25:47.693Z,3.83
2023-05-24T17:27:53.011Z,3.17
2023-05-24T17:30:02.036Z,3.22
2023-05-24T17:32:08.008Z,3.17
2023-05-24T17:34:13.356Z,3.47
2023-05-24T17:36:19.730Z,3.28
2023-05-24T17:38:26.757Z,3.35
2023-05-24T17:40:31.931Z,3.05
2023-05-24T17:42:37.943Z,2.90
2023-05-24T17:44:43.134Z,3.97
2023-05-24T17:46:52.039Z,3.00
2023-05-24T17:48:58.482Z,4.00
2023-05-24T17:51:03.943Z,3.47
2023-05-24T17:53:18.996Z,3.08
2023-05-24T17:55:34.857Z,3.55
2023-05-24T17:57:39.922Z,3.42
2023-05-24T17:59:44.956Z,3.97
2023-05-24T18:01:52.732Z,2.90
2023-05-24T18:03:57.928Z,2.95
2023-05-24T18:06:04.317Z,3.28
2023-05-24T18:08:12.556Z,3.22
2023-05-24T18:10:17.691Z,3.22
2023-05-24T18:12:22.900Z,3.75
2023-05-24T18:14:29.604Z,3.35
2023-05-24T18:16:34.835Z,4.55
2023-05-24T18:18:44.285Z,3.28
2023-05-24T18:20:49.944Z,3.20
2023-05-24T18:22:56.420Z,3.67
2023-05-24T18:25:02.081Z,3.70
2023-05-24T18:27:07.906Z,3.40
2023-05-24T18:29:12.996Z,3.40
2023-05-24T18:31:21.220Z,3.42
2023-05-24T18:33:26.544Z,3.90
2023-05-24T18:35:34.979Z,3.10
2023-05-24T18:37:40.200Z,2.65
2023-05-24T18:39:45.545Z,3.53
2023-05-24T18:41:52.559Z,3.25
2023-05-24T18:43:57.778Z,3.40
2023-05-24T18:46:02.819Z,3.10
2023-05-24T18:48:09.079Z,3.53
2023-05-24T18:50:14.621Z,3.10
2023-05-24T18:52:22.637Z,4.07
2023-05-24T18:54:27.734Z,3.42
2023-05-24T18:56:35.347Z,3.20
2023-05-24T18:58:45.624Z,3.55
2023-05-24T19:00:53.548Z,3.22
2023-05-24T19:02:58.805Z,3.05
2023-05-24T19:05:03.870Z,3.10
2023-05-24T19:07:09.534Z,2.92
2023-05-24T19:09:24.667Z,3.95
2023-05-24T19:11:35.954Z,3.83
2023-05-24T19:13:42.421Z,3.13
2023-05-24T19:15:47.676Z,3.30
2023-05-24T19:17:53.539Z,4.00
2023-05-24T19:19:58.877Z,3.25
2023-05-24T19:22:07.233Z,4.03
2023-05-24T19:24:12.338Z,2.88
2023-05-24T19:26:21.318Z,3.17
2023-05-24T19:28:26.350Z,3.60
2023-05-24T19:30:31.533Z,3.95
2023-05-24T19:32:38.114Z,4.13
2023-05-24T19:34:43.463Z,3.83
2023-05-24T19:36:48.931Z,3.40
2023-05-24T19:38:55.676Z,3.42
2023-05-24T19:41:00.790Z,3.47
2023-05-24T19:43:11.370Z,3.40
2023-05-24T19:45:16.717Z,3.72
2023-05-24T19:47:24.350Z,4.47
2023-05-24T19:49:30.610Z,3.17
2023-05-24T19:51:35.686Z,3.10
2023-05-24T19:53:43.653Z,3.58
2023-05-24T19:55:48.909Z,3.58
2023-05-24T19:57:56.342Z,3.10
2023-05-24T20:00:04.533Z,3.85
2023-05-24T20:02:10.002Z,3.63
2023-05-24T20:04:15.955Z,3.58
2023-05-24T20:06:21.232Z,3.58
2023-05-24T20:08:27.665Z,2.92
2023-05-24T20:10:36.913Z,3.63
2023-05-24T20:12:42.985Z,3.85
2023-05-24T20:14:48.203Z,4.03
2023-05-24T20:16:56.313Z,3.42
2023-05-24T20:19:01.502Z,3.70
2023-05-24T20:21:06.893Z,4.07
2023-05-24T20:23:11.924Z,3.15
2023-05-24T20:25:18.515Z,3.30
2023-05-24T20:27:24.342Z,3.58
2023-05-24T20:29:30.079Z,3.88
2023-05-24T20:31:35.299Z,4.10
2023-05-24T20:33:42.926Z,3.78
2023-05-24T20:35:48.954Z,3.88
2023-05-24T20:37:57.363Z,3.58
2023-05-24T20:40:02.416Z,3.90
2023-05-24T20:42:08.647Z,4.00
2023-05-24T20:44:14.143Z,4.25
2023-05-24T20:46:19.344Z,3.83
2023-05-24T20:48:26.043Z,3.88
2023-05-24T20:50:33.814Z,3.63
2023-05-24T20:52:38.870Z,3.25
2023-05-24T20:54:44.092Z,3.45
2023-05-24T20:56:51.772Z,3.78
2023-05-24T20:59:00.207Z,4.07
2023-05-24T21:01:05.356Z,4.10
2023-05-24T21:03:10.785Z,3.97
2023-05-24T21:05:15.892Z,4.07
2023-05-24T21:07:23.775Z,3.90
2023-05-24T21:09:28.920Z,3.63
2023-05-24T21:11:33.938Z,3.83
2023-05-24T21:13:39.225Z,3.60
2023-05-24T21:15:45.520Z,3.80
2023-05-24T21:17:53.455Z,3.78
2023-05-24T21:19:58.591Z,4.30
2023-05-24T21:22:03.839Z,3.42
2023-05-24T21:24:11.736Z,4.10
2023-05-24T21:26:16.835Z,3.92
2023-05-24T21:28:22.828Z,3.13
2023-05-24T21:30:27.830Z,5.65
2023-05-24T21:32:35.468Z,3.63
2023-05-24T21:34:40.762Z,3.33
2023-05-24T21:36:45.816Z,3.78
2023-05-24T21:38:53.484Z,3.90
2023-05-24T21:41:01.157Z,4.20
2023-05-24T21:43:06.931Z,4.28
2023-05-24T21:45:12.983Z,3.80
2023-05-24T21:47:18.144Z,3.33
2023-05-24T21:49:26.243Z,3.60
2023-05-24T21:51:31.369Z,3.53
2023-05-24T21:53:38.983Z,3.45
2023-05-24T21:55:44.066Z,4.13
2023-05-24T21:57:54.735Z,3.55
2023-05-24T22:00:00.331Z,3.60
2023-05-24T22:02:05.572Z,3.78
2023-05-24T22:04:13.770Z,4.50
2023-05-24T22:06:19.265Z,3.80
2023-05-24T22:08:24.846Z,3.33
2023-05-24T22:10:33.195Z,3.00
2023-05-24T22:12:38.353Z,4.90
2023-05-24T22:14:46.077Z,3.30
2023-05-24T22:16:52.880Z,3.05
2023-05-24T22:18:58.818Z,3.35
2023-05-24T22:21:03.936Z,3.15
2023-05-24T22:23:09.085Z,2.97
2023-05-24T22:25:17.954Z,3.45
2023-05-24T22:27:23.743Z,3.17
2023-05-24T22:29:28.848Z,3.40
2023-05-24T22:31:36.802Z,4.32
2023-05-24T22:33:41.744Z,3.78
2023-05-24T22:35:46.878Z,3.05
2023-05-24T22:37:52.946Z,3.13
2023-05-24T22:39:57.986Z,3.47
2023-05-24T22:42:03.273Z,3.45
2023-05-24T22:44:08.449Z,2.95
2023-05-24T22:46:13.469Z,3.80
2023-05-24T22:48:22.260Z,3.78
2023-05-24T22:50:27.323Z,3.97
2023-05-24T22:52:33.954Z,3.55
2023-05-24T22:54:39.339Z,3.47
2023-05-24T22:56:44.554Z,3.72
2023-05-24T22:58:50.570Z,3.80
2023-05-24T23:00:59.279Z,3.30
2023-05-24T23:03:04.439Z,3.60
2023-05-24T23:05:12.769Z,3.85
2023-05-24T23:07:18.235Z,4.18
2023-05-24T23:09:35.034Z,3.45
2023-05-24T23:11:43.168Z,3.78
2023-05-24T23:13:53.189Z,3.42
2023-05-24T23:15:58.959Z,3.75
2023-05-24T23:18:05.949Z,3.80
2023-05-24T23:20:14.844Z,3.50
2023-05-24T23:22:24.101Z,3.70
2023-05-24T23:24:29.125Z,4.03
2023-05-24T23:26:34.437Z,3.53
2023-05-24T23:28:39.558Z,4.30
2023-05-24T23:30:44.896Z,3.95
2023-05-24T23:32:50.343Z,4.18
2023-05-24T23:34:57.972Z,3.60
2023-05-24T23:37:06.096Z,4.55
2023-05-24T23:39:13.018Z,4.18
2023-05-24T23:41:17.982Z,4.63
2023-05-24T23:43:27.102Z,3.72
2023-05-24T23:45:32.469Z,4.20
2023-05-24T23:47:40.138Z,3.83
2023-05-24T23:49:45.189Z,4.05
2023-05-24T23:51:50.488Z,4.30
2023-05-24T23:53:58.838Z,4.07
2023-05-24T23:56:03.865Z,3.72
2023-05-24T23:58:08.903Z,3.95
